Time;durP1;ratioP1;P1;durP2;ratioP2;P2;SDS_P1;SDS_P2;PMS_P1;PMS_P2;Temp;Humidity;BMP_temperature;BMP_pressure;BME280_temperature;BME280_humidity;BME280_pressure;Samples;Min_cycle;Max_cycle;Signal;HPM_P1;HPM_P2
2023/12/26 00:00:59;;;;;;;4.90;2.37;;;9.40;99.90;;;;;;5034522;28;20478;-79
2023/12/26 00:03:25;;;;;;;6.73;1.90;;;9.40;99.90;;;;;;5035760;28;20556;-76
2023/12/26 00:05:54;;;;;;;3.10;2.30;;;9.40;99.90;;;;;;5052062;28;20518;-78
2023/12/26 00:08:20;;;;;;;6.33;2.83;;;9.40;99.90;;;;;;5052546;28;20569;-77
2023/12/26 00:10:47;;;;;;;4.23;2.33;;;9.50;99.90;;;;;;5046124;28;20489;-76
2023/12/26 00:13:14;;;;;;;7.07;2.87;;;9.50;99.90;;;;;;5047368;28;20904;-76
2023/12/26 00:15:41;;;;;;;2.20;1.80;;;9.50;99.90;;;;;;5034478;28;20574;-80
2023/12/26 00:18:08;;;;;;;12.20;2.30;;;9.50;99.90;;;;;;5039441;28;20529;-81
2023/12/26 00:20:39;;;;;;;7.90;3.90;;;9.50;99.90;;;;;;5018966;28;20524;-77
2023/12/26 00:23:07;;;;;;;12.50;4.03;;;9.40;99.90;;;;;;5042450;28;20856;-73
2023/12/26 00:25:34;;;;;;;3.37;3.00;;;9.40;99.90;;;;;;5060516;28;21921;-77
2023/12/26 00:28:01;;;;;;;6.13;1.70;;;9.40;99.90;;;;;;5047261;28;20570;-77
2023/12/26 00:30:28;;;;;;;9.70;2.67;;;9.40;99.90;;;;;;5050640;28;20511;-76
2023/12/26 00:32:54;;;;;;;4.37;2.90;;;9.50;99.90;;;;;;5053305;28;20559;-77
2023/12/26 00:35:22;;;;;;;7.80;2.90;;;9.40;99.90;;;;;;5030373;28;20514;-76
2023/12/26 00:37:49;;;;;;;25.20;2.80;;;9.40;99.90;;;;;;5031872;28;20494;-77
2023/12/26 00:40:17;;;;;;;3.70;2.70;;;9.40;99.90;;;;;;5051853;28;20505;-75
2023/12/26 00:42:45;;;;;;;3.10;2.43;;;9.40;99.90;;;;;;5046137;28;20488;-77
2023/12/26 00:45:13;;;;;;;9.90;3.03;;;9.30;99.90;;;;;;5043945;28;20894;-73
2023/12/26 00:47:40;;;;;;;8.53;2.57;;;9.40;99.90;;;;;;5027867;28;20943;-75
2023/12/26 00:50:11;;;;;;;8.87;4.70;;;9.30;99.90;;;;;;5040247;28;21183;-73
2023/12/26 00:52:38;;;;;;;20.27;3.60;;;9.40;99.90;;;;;;5036416;28;20487;-74
2023/12/26 00:55:06;;;;;;;6.60;2.90;;;9.30;99.90;;;;;;5042506;28;20743;-74
2023/12/26 00:57:34;;;;;;;9.80;4.50;;;9.40;99.90;;;;;;5044153;28;20578;-72
2023/12/26 01:00:03;;;;;;;5.10;3.43;;;9.40;99.90;;;;;;5040921;28;20471;-75
2023/12/26 01:02:30;;;;;;;13.57;4.80;;;9.50;99.90;;;;;;5020764;28;20471;-72
2023/12/26 01:04:57;;;;;;;10.37;4.07;;;9.40;99.90;;;;;;5030616;28;20875;-75
2023/12/26 01:07:24;;;;;;;5.20;3.50;;;9.40;99.90;;;;;;5001841;28;20597;-72
2023/12/26 01:09:50;;;;;;;16.00;5.00;;;9.40;99.90;;;;;;5029459;28;20602;-73
2023/12/26 01:12:18;;;;;;;10.50;4.47;;;9.40;99.90;;;;;;5036788;28;20615;-72
2023/12/26 01:14:46;;;;;;;8.70;3.33;;;9.50;99.90;;;;;;5021615;28;20476;-74
2023/12/26 01:17:13;;;;;;;6.17;3.23;;;9.50;99.90;;;;;;5049215;28;20554;-73
2023/12/26 01:19:40;;;;;;;5.23;2.40;;;9.40;99.90;;;;;;5036508;28;20824;-73
2023/12/26 01:22:06;;;;;;;6.73;2.67;;;9.50;99.90;;;;;;5057549;28;21083;-78
2023/12/26 01:24:33;;;;;;;4.23;3.00;;;9.60;99.90;;;;;;5030053;28;20984;-75
2023/12/26 01:27:00;;;;;;;13.03;3.90;;;9.60;99.90;;;;;;5044348;28;20571;-75
2023/12/26 01:29:27;;;;;;;4.27;2.13;;;9.70;99.90;;;;;;5026446;28;20498;-77
2023/12/26 01:31:55;;;;;;;15.30;2.60;;;9.60;99.90;;;;;;5041812;28;20569;-78
2023/12/26 01:34:21;;;;;;;6.13;3.20;;;9.60;99.90;;;;;;5049140;28;20475;-77
2023/12/26 01:36:47;;;;;;;3.40;1.90;;;9.70;99.90;;;;;;5044723;28;20474;-75
2023/12/26 01:39:15;;;;;;;15.77;3.53;;;9.70;99.90;;;;;;5054499;28;20375;-78
2023/12/26 01:41:42;;;;;;;8.40;1.80;;;9.70;99.90;;;;;;5054285;28;20994;-75
2023/12/26 01:44:09;;;;;;;17.23;2.67;;;9.60;99.90;;;;;;5052418;28;20563;-75
2023/12/26 01:46:36;;;;;;;6.50;2.20;;;9.70;99.90;;;;;;5046462;28;21080;-77
2023/12/26 01:49:04;;;;;;;5.10;2.37;;;9.80;99.90;;;;;;5046700;28;20566;-75
2023/12/26 01:51:32;;;;;;;12.23;2.90;;;9.80;99.90;;;;;;5046206;28;20505;-75
2023/12/26 01:54:00;;;;;;;9.93;2.70;;;9.80;99.90;;;;;;5046971;28;20936;-76
2023/12/26 01:56:27;;;;;;;7.33;3.00;;;9.90;99.90;;;;;;5063816;28;20498;-74
2023/12/26 01:58:54;;;;;;;4.80;2.60;;;9.90;99.90;;;;;;5052757;28;20594;-76
2023/12/26 02:01:21;;;;;;;15.53;3.43;;;9.90;99.90;;;;;;5057411;28;20569;-75
2023/12/26 02:03:48;;;;;;;19.27;3.10;;;9.80;99.90;;;;;;5053911;28;20482;-72
2023/12/26 02:06:17;;;;;;;20.30;3.33;;;9.90;99.90;;;;;;5050387;28;21034;-76
2023/12/26 02:08:43;;;;;;;7.60;2.40;;;10.00;99.90;;;;;;5031730;28;20487;-73
2023/12/26 02:11:10;;;;;;;13.57;3.10;;;10.00;99.90;;;;;;5059823;28;20573;-76
2023/12/26 02:13:37;;;;;;;9.10;2.63;;;10.00;99.90;;;;;;5057503;28;20532;-73
2023/12/26 02:16:11;;;;;;;6.47;1.90;;;10.00;99.90;;;;;;5061043;28;20828;-72
2023/12/26 02:18:38;;;;;;;7.90;3.10;;;10.00;99.90;;;;;;5059573;28;20478;-73
2023/12/26 02:21:05;;;;;;;3.47;2.40;;;9.90;99.90;;;;;;5060280;28;20502;-72
2023/12/26 02:23:35;;;;;;;12.70;2.90;;;10.00;99.90;;;;;;5050179;28;20483;-73
2023/12/26 02:26:04;;;;;;;10.23;4.43;;;9.90;99.90;;;;;;5013993;28;20636;-73
2023/12/26 02:28:32;;;;;;;11.63;2.57;;;9.90;99.90;;;;;;5053564;28;20564;-72
2023/12/26 02:31:01;;;;;;;5.37;2.23;;;9.80;99.90;;;;;;5019431;28;20581;-73
2023/12/26 02:33:30;;;;;;;8.70;3.40;;;9.80;99.90;;;;;;5053246;28;21081;-72
2023/12/26 02:35:56;;;;;;;11.13;2.80;;;9.90;99.90;;;;;;5068063;28;20486;-73
2023/12/26 02:38:23;;;;;;;4.33;2.60;;;9.90;99.90;;;;;;5054842;28;20915;-75
2023/12/26 02:40:52;;;;;;;24.93;4.60;;;9.90;99.90;;;;;;5060314;28;20929;-74
2023/12/26 02:43:21;;;;;;;5.80;1.70;;;9.90;99.90;;;;;;5052842;28;20548;-74
2023/12/26 02:45:49;;;;;;;7.70;1.90;;;10.00;99.90;;;;;;5066748;28;20563;-74
2023/12/26 02:48:15;;;;;;;10.87;2.20;;;9.90;99.90;;;;;;5040451;28;20534;-73
2023/12/26 02:50:42;;;;;;;5.60;2.23;;;9.90;99.90;;;;;;5040046;28;20820;-76
2023/12/26 02:53:09;;;;;;;3.37;1.63;;;9.80;99.90;;;;;;5058811;28;20573;-73
2023/12/26 02:55:36;;;;;;;8.10;3.03;;;9.90;99.90;;;;;;5054681;28;20899;-72
2023/12/26 02:58:03;;;;;;;3.93;1.90;;;9.80;99.90;;;;;;5044881;28;20754;-72
2023/12/26 03:00:31;;;;;;;7.93;2.63;;;9.80;99.90;;;;;;5042155;28;21370;-72
2023/12/26 03:02:58;;;;;;;2.90;1.87;;;9.90;99.90;;;;;;5037968;28;21080;-77
2023/12/26 03:05:25;;;;;;;8.33;2.77;;;9.80;99.90;;;;;;5051097;28;20591;-74
2023/12/26 03:07:52;;;;;;;12.93;3.57;;;9.80;99.90;;;;;;5035701;28;21051;-72
2023/12/26 03:10:19;;;;;;;17.90;3.27;;;9.80;99.90;;;;;;5043559;28;20509;-73
2023/12/26 03:12:46;;;;;;;11.17;2.97;;;9.80;99.90;;;;;;5048324;28;20920;-73
2023/12/26 03:15:13;;;;;;;35.73;3.23;;;9.90;99.90;;;;;;5033528;28;20504;-75
2023/12/26 03:17:41;;;;;;;11.57;2.13;;;10.00;99.90;;;;;;5024757;28;20561;-73
2023/12/26 03:20:08;;;;;;;8.33;2.23;;;10.00;99.90;;;;;;5048765;28;20563;-73
2023/12/26 03:22:35;;;;;;;9.70;2.30;;;10.00;99.90;;;;;;5045753;28;21175;-72
2023/12/26 03:25:02;;;;;;;16.47;2.13;;;10.00;99.90;;;;;;4972027;28;20476;-73
2023/12/26 03:27:29;;;;;;;8.57;3.53;;;9.90;99.90;;;;;;5071920;28;20507;-76
2023/12/26 03:29:56;;;;;;;9.33;2.33;;;10.00;99.90;;;;;;5038912;28;20563;-73
2023/12/26 03:32:23;;;;;;;8.70;2.13;;;10.00;99.90;;;;;;5063057;28;20561;-73
2023/12/26 03:34:51;;;;;;;8.93;2.90;;;10.00;99.90;;;;;;5017466;28;20627;-74
2023/12/26 03:37:18;;;;;;;6.60;2.03;;;10.00;99.90;;;;;;5033640;28;20621;-75
2023/12/26 03:39:45;;;;;;;12.10;2.80;;;10.00;99.90;;;;;;5064358;28;20468;-78
2023/12/26 03:42:12;;;;;;;15.60;3.73;;;10.00;99.90;;;;;;5040922;28;20994;-72
2023/12/26 03:44:38;;;;;;;11.97;3.90;;;10.00;99.90;;;;;;5053057;28;20470;-72
2023/12/26 03:47:06;;;;;;;7.30;2.20;;;10.00;99.90;;;;;;5042118;28;20561;-73
2023/12/26 03:49:33;;;;;;;25.63;3.27;;;9.90;99.90;;;;;;5061658;28;20554;-76
2023/12/26 03:52:01;;;;;;;6.50;3.17;;;10.00;99.90;;;;;;5045365;28;20480;-72
2023/12/26 03:54:28;;;;;;;6.10;2.37;;;10.00;99.90;;;;;;5052999;28;20498;-72
2023/12/26 03:56:54;;;;;;;12.10;2.47;;;10.00;99.90;;;;;;5050382;28;20561;-76
2023/12/26 03:59:21;;;;;;;7.27;2.10;;;9.90;99.90;;;;;;5058975;28;20919;-74
2023/12/26 04:01:51;;;;;;;7.43;2.43;;;9.90;99.90;;;;;;5049980;28;20497;-72
2023/12/26 04:04:18;;;;;;;12.23;3.20;;;9.90;99.90;;;;;;5069852;28;20550;-72
2023/12/26 04:06:45;;;;;;;5.57;2.33;;;9.90;99.90;;;;;;5060662;28;20566;-71
2023/12/26 04:09:13;;;;;;;6.63;1.80;;;9.90;99.90;;;;;;5060867;28;20566;-71
2023/12/26 04:11:41;;;;;;;9.23;2.90;;;9.80;99.90;;;;;;5047095;28;20478;-73
2023/12/26 04:14:08;;;;;;;8.17;1.83;;;9.80;99.90;;;;;;5066082;28;20989;-71
2023/12/26 04:16:34;;;;;;;4.40;1.70;;;9.80;99.90;;;;;;5040565;28;21000;-74
2023/12/26 04:19:02;;;;;;;8.43;2.87;;;9.70;99.90;;;;;;5074288;28;21086;-72
2023/12/26 04:21:28;;;;;;;6.33;2.07;;;9.80;99.90;;;;;;5060050;28;20988;-76
2023/12/26 04:23:56;;;;;;;22.27;3.37;;;;;;;;;;5039246;28;20478;-72
2023/12/26 04:26:24;;;;;;;8.37;2.07;;;9.80;99.90;;;;;;5065805;28;21192;-76
2023/12/26 04:28:51;;;;;;;7.73;2.13;;;9.80;99.90;;;;;;5058247;28;20606;-73
2023/12/26 04:31:18;;;;;;;3.27;2.07;;;9.90;99.90;;;;;;5058231;28;20472;-73
2023/12/26 04:33:46;;;;;;;10.07;3.43;;;9.80;99.90;;;;;;5062596;28;20490;-74
2023/12/26 04:36:12;;;;;;;3.97;1.77;;;9.90;99.90;;;;;;5054096;28;20477;-78
2023/12/26 04:38:40;;;;;;;16.67;2.90;;;10.00;99.90;;;;;;5062278;28;20565;-75
2023/12/26 04:41:11;;;;;;;5.83;1.73;;;10.00;99.90;;;;;;5057216;28;20462;-75
2023/12/26 04:43:39;;;;;;;7.03;2.23;;;9.90;99.90;;;;;;5036629;28;20574;-74
2023/12/26 04:46:06;;;;;;;9.73;2.10;;;9.90;99.90;;;;;;5042440;28;21071;-72
2023/12/26 04:48:33;;;;;;;11.33;3.30;;;9.90;99.90;;;;;;5047851;28;20489;-71
2023/12/26 04:51:00;;;;;;;4.17;2.43;;;10.00;99.90;;;;;;5055979;28;20900;-71
2023/12/26 04:53:27;;;;;;;9.77;2.50;;;9.90;99.90;;;;;;5055544;28;20539;-74
2023/12/26 04:55:54;;;;;;;4.03;2.13;;;9.90;99.90;;;;;;5061079;28;20474;-80
2023/12/26 04:58:21;;;;;;;16.70;3.17;;;;;;;;;;5057856;28;20573;-73
2023/12/26 05:00:52;;;;;;;4.00;1.73;;;9.90;99.90;;;;;;5058651;28;20863;-76
2023/12/26 05:03:19;;;;;;;8.93;2.20;;;10.00;99.90;;;;;;5029412;28;20508;-73
2023/12/26 05:05:46;;;;;;;10.23;2.00;;;10.00;99.90;;;;;;5061862;28;20503;-74
2023/12/26 05:08:13;;;;;;;8.10;2.40;;;10.00;99.90;;;;;;5063475;28;20542;-75
2023/12/26 05:10:40;;;;;;;3.23;1.30;;;10.00;99.90;;;;;;5056944;28;20483;-76
2023/12/26 05:13:06;;;;;;;5.83;2.10;;;10.00;99.90;;;;;;5042229;28;20583;-74
2023/12/26 05:15:33;;;;;;;10.10;1.80;;;10.00;99.90;;;;;;5042039;28;20515;-78
2023/12/26 05:18:03;;;;;;;8.30;2.03;;;10.00;99.90;;;;;;5020200;28;20990;-74
2023/12/26 05:20:30;;;;;;;16.67;2.57;;;10.00;99.90;;;;;;5040801;28;20483;-78
2023/12/26 05:22:56;;;;;;;6.60;1.70;;;10.00;99.90;;;;;;5040317;28;20505;-74
2023/12/26 05:25:24;;;;;;;2.87;1.40;;;10.00;99.90;;;;;;5035819;28;20563;-75
2023/12/26 05:27:51;;;;;;;5.83;2.07;;;10.00;99.90;;;;;;5034144;28;20483;-80
2023/12/26 05:30:19;;;;;;;9.30;3.87;;;10.00;99.90;;;;;;5034002;28;20553;-74
2023/12/26 05:32:46;;;;;;;14.10;3.00;;;;;;;;;;5056079;28;21243;-75
2023/12/26 05:35:15;;;;;;;5.33;2.60;;;10.00;99.90;;;;;;5030342;28;20538;-77
2023/12/26 05:37:41;;;;;;;9.07;2.60;;;10.00;99.90;;;;;;5064393;28;21508;-76
2023/12/26 05:40:09;;;;;;;7.33;2.10;;;10.00;99.90;;;;;;5060777;28;20508;-75
2023/12/26 05:42:36;;;;;;;8.10;2.23;;;10.10;99.90;;;;;;5058278;28;21120;-75
2023/12/26 05:45:03;;;;;;;15.93;4.10;;;10.10;99.90;;;;;;5036027;28;21018;-78
2023/12/26 05:47:30;;;;;;;7.93;2.73;;;9.90;99.90;;;;;;5034004;28;20475;-75
2023/12/26 05:49:58;;;;;;;12.57;1.07;;;10.00;99.90;;;;;;5036871;28;21278;-75
2023/12/26 05:52:27;;;;;;;9.00;3.57;;;10.00;99.90;;;;;;5038181;28;20978;-73
2023/12/26 05:54:55;;;;;;;8.30;3.27;;;10.00;99.90;;;;;;5030762;28;20564;-74
2023/12/26 05:57:21;;;;;;;7.47;1.97;;;10.10;99.90;;;;;;5064591;28;20505;-77
2023/12/26 05:59:48;;;;;;;10.00;2.87;;;10.10;99.90;;;;;;5051908;28;20571;-77
2023/12/26 06:02:15;;;;;;;6.93;1.87;;;10.20;99.90;;;;;;5049202;28;20546;-74
2023/12/26 06:04:43;;;;;;;7.37;2.20;;;10.10;99.90;;;;;;5049210;28;20559;-76
2023/12/26 06:07:09;;;;;;;16.07;3.10;;;10.10;99.90;;;;;;5031917;28;21277;-73
2023/12/26 06:09:38;;;;;;;6.80;2.30;;;10.00;99.90;;;;;;5067637;28;20476;-75
2023/12/26 06:12:05;;;;;;;9.73;2.80;;;10.10;99.90;;;;;;5038383;28;20571;-74
2023/12/26 06:14:32;;;;;;;25.60;3.10;;;10.20;99.90;;;;;;5036698;28;20559;-72
2023/12/26 06:17:00;;;;;;;5.07;2.07;;;10.00;99.90;;;;;;5039619;28;20572;-75
2023/12/26 06:19:27;;;;;;;7.20;2.83;;;10.00;99.90;;;;;;5036666;28;20563;-76
2023/12/26 06:21:54;;;;;;;19.27;2.93;;;10.00;99.90;;;;;;5044125;28;21061;-78
2023/12/26 06:24:21;;;;;;;5.73;1.93;;;10.00;99.90;;;;;;5056276;28;20495;-73
2023/12/26 06:26:49;;;;;;;6.83;2.50;;;9.90;99.90;;;;;;5039023;28;20729;-78
2023/12/26 06:29:16;;;;;;;12.93;2.13;;;10.00;99.90;;;;;;5035692;28;20472;-75
2023/12/26 06:31:42;;;;;;;17.43;2.70;;;10.00;99.90;;;;;;5040049;28;20507;-78
2023/12/26 06:34:09;;;;;;;4.27;1.90;;;9.90;99.90;;;;;;5040478;28;20574;-77
2023/12/26 06:36:37;;;;;;;4.40;1.80;;;9.90;99.90;;;;;;5037974;28;20978;-75
2023/12/26 06:39:04;;;;;;;6.43;2.70;;;9.70;99.90;;;;;;5038608;28;20567;-75
2023/12/26 06:41:31;;;;;;;16.97;3.20;;;9.60;99.90;;;;;;5033326;28;20479;-76
2023/12/26 06:43:59;;;;;;;5.30;2.40;;;9.60;99.90;;;;;;5040115;28;20592;-74
2023/12/26 06:46:26;;;;;;;14.93;3.83;;;9.50;99.90;;;;;;5036018;28;20479;-76
2023/12/26 06:48:53;;;;;;;16.63;2.30;;;;;;;;;;5038644;28;20537;-73
2023/12/26 06:51:20;;;;;;;9.30;1.90;;;9.40;99.90;;;;;;5040607;28;20482;-71
2023/12/26 06:53:47;;;;;;;11.50;2.87;;;9.50;99.90;;;;;;5042601;28;20515;-75
2023/12/26 06:56:13;;;;;;;3.33;1.50;;;9.60;99.90;;;;;;5046616;28;20617;-76
2023/12/26 06:58:40;;;;;;;9.50;2.67;;;9.40;99.90;;;;;;5037279;28;20504;-79
2023/12/26 07:01:10;;;;;;;4.20;1.60;;;9.50;99.90;;;;;;5058757;28;20499;-76
2023/12/26 07:03:37;;;;;;;18.13;3.30;;;9.50;99.90;;;;;;5060426;28;20573;-79
2023/12/26 07:06:04;;;;;;;6.80;2.10;;;9.50;99.90;;;;;;5042980;28;21271;-76
2023/12/26 07:08:30;;;;;;;6.60;2.50;;;9.40;99.90;;;;;;5050024;28;20582;-74
2023/12/26 07:10:57;;;;;;;7.60;3.30;;;9.30;99.90;;;;;;5048062;28;20502;-75
2023/12/26 07:13:24;;;;;;;4.60;2.43;;;9.30;99.90;;;;;;5043372;28;20618;-76
2023/12/26 07:15:52;;;;;;;27.17;5.10;;;9.30;99.90;;;;;;5061302;28;20594;-75
2023/12/26 07:18:20;;;;;;;10.67;2.90;;;9.30;99.90;;;;;;5061551;28;20482;-74
2023/12/26 07:20:47;;;;;;;11.50;1.87;;;9.30;99.90;;;;;;5058756;28;20478;-75
2023/12/26 07:23:14;;;;;;;15.20;2.30;;;9.20;99.90;;;;;;5047896;28;20526;-73
2023/12/26 07:25:42;;;;;;;8.23;3.00;;;9.30;99.90;;;;;;5050244;28;21054;-74
2023/12/26 07:28:10;;;;;;;8.53;2.40;;;9.20;99.90;;;;;;5038183;28;20475;-76
2023/12/26 07:30:38;;;;;;;29.03;5.10;;;9.10;99.90;;;;;;5051450;28;22011;-73
2023/12/26 07:33:06;;;;;;;8.60;2.20;;;8.90;99.90;;;;;;5039638;28;20479;-79
2023/12/26 07:35:37;;;;;;;6.07;2.80;;;9.00;99.90;;;;;;5034500;28;20555;-74
2023/12/26 07:38:04;;;;;;;11.43;1.93;;;9.00;99.90;;;;;;5038390;28;20529;-76
2023/12/26 07:40:32;;;;;;;6.60;1.80;;;9.00;99.90;;;;;;5040513;28;20639;-72
2023/12/26 07:42:59;;;;;;;13.40;4.07;;;8.90;99.90;;;;;;5042126;28;20587;-74
2023/12/26 07:45:26;;;;;;;6.80;2.17;;;9.00;99.90;;;;;;5036003;28;21258;-73
2023/12/26 07:47:53;;;;;;;9.70;3.57;;;9.00;99.90;;;;;;5041655;28;20569;-73
2023/12/26 07:50:22;;;;;;;33.53;4.33;;;8.90;99.90;;;;;;5051437;28;20549;-73
2023/12/26 07:52:50;;;;;;;2.30;1.27;;;8.90;99.90;;;;;;5041157;28;20487;-75
2023/12/26 07:55:16;;;;;;;14.00;3.07;;;9.00;99.90;;;;;;5041108;28;20516;-72
2023/12/26 07:57:44;;;;;;;18.37;3.10;;;9.00;99.90;;;;;;5037516;28;20559;-73
2023/12/26 08:00:12;;;;;;;3.13;1.50;;;9.00;99.90;;;;;;5039620;28;20572;-74
2023/12/26 08:02:38;;;;;;;3.20;2.10;;;9.00;99.90;;;;;;5038188;28;20534;-77
2023/12/26 08:05:05;;;;;;;23.37;3.43;;;8.90;99.90;;;;;;5041784;28;20543;-75
2023/12/26 08:07:32;;;;;;;8.73;3.10;;;8.90;99.90;;;;;;5039727;28;21066;-73
2023/12/26 08:10:00;;;;;;;8.50;2.53;;;8.90;99.90;;;;;;5041393;28;20528;-73
2023/12/26 08:12:27;;;;;;;15.03;2.97;;;8.80;99.90;;;;;;5052554;28;20538;-75
2023/12/26 08:14:54;;;;;;;7.37;2.63;;;8.90;99.90;;;;;;5047638;28;20499;-78
2023/12/26 08:17:21;;;;;;;10.50;3.40;;;8.80;99.90;;;;;;5054039;28;20645;-74
2023/12/26 08:19:49;;;;;;;3.00;1.67;;;8.90;99.90;;;;;;5044779;28;21275;-73
2023/12/26 08:22:16;;;;;;;9.73;2.40;;;8.80;99.90;;;;;;5049244;28;20556;-78
2023/12/26 08:24:42;;;;;;;9.63;2.10;;;8.80;99.90;;;;;;5046521;28;20906;-76
2023/12/26 08:27:11;;;;;;;5.53;2.63;;;8.80;99.90;;;;;;5059201;28;20940;-75
2023/12/26 08:29:37;;;;;;;11.03;1.83;;;8.80;99.90;;;;;;5051118;28;20591;-77
2023/12/26 08:32:05;;;;;;;11.57;1.97;;;8.80;99.90;;;;;;5057287;28;20561;-74
2023/12/26 08:34:31;;;;;;;7.50;2.93;;;8.80;99.90;;;;;;5058094;28;20469;-74
2023/12/26 08:36:58;;;;;;;4.13;3.00;;;8.80;99.90;;;;;;5043472;28;20471;-79
2023/12/26 08:39:25;;;;;;;13.43;3.10;;;8.60;99.90;;;;;;5039789;28;20494;-78
2023/12/26 08:41:51;;;;;;;10.93;2.20;;;8.60;99.90;;;;;;5050712;28;20544;-76
2023/12/26 08:44:20;;;;;;;2.50;1.23;;;8.80;99.90;;;;;;5044089;28;20583;-75
2023/12/26 08:46:47;;;;;;;6.90;2.50;;;8.80;99.90;;;;;;5041771;28;20888;-78
2023/12/26 08:49:14;;;;;;;4.60;2.23;;;8.80;99.90;;;;;;5039916;28;20515;-79
2023/12/26 08:51:41;;;;;;;8.33;3.47;;;8.80;99.90;;;;;;5035549;28;20570;-78
2023/12/26 08:54:07;;;;;;;3.60;1.53;;;8.70;99.90;;;;;;5040453;28;20472;-76
2023/12/26 08:56:38;;;;;;;8.50;3.10;;;8.70;99.90;;;;;;5038515;28;20918;-76
2023/12/26 08:59:04;;;;;;;3.67;1.97;;;8.80;99.90;;;;;;5040026;28;20556;-75
2023/12/26 09:01:34;;;;;;;7.27;2.90;;;8.80;99.90;;;;;;5039142;28;20557;-77
2023/12/26 09:04:01;;;;;;;21.27;2.80;;;8.80;99.90;;;;;;5048536;28;20571;-75
2023/12/26 09:06:27;;;;;;;19.30;4.10;;;8.90;99.90;;;;;;5050072;28;20579;-75
2023/12/26 09:08:54;;;;;;;4.60;2.30;;;8.90;99.90;;;;;;5035359;28;20880;-81
2023/12/26 09:11:21;;;;;;;5.20;3.53;;;8.80;99.90;;;;;;5051656;28;20544;-78
2023/12/26 09:13:48;;;;;;;21.97;2.50;;;8.90;99.90;;;;;;5052852;28;20570;-74
2023/12/26 09:16:15;;;;;;;10.63;4.17;;;8.70;99.90;;;;;;5043623;28;20512;-75
2023/12/26 09:18:44;;;;;;;6.33;2.60;;;8.80;99.90;;;;;;5031556;28;20913;-78
2023/12/26 09:21:10;;;;;;;2.30;1.60;;;8.90;99.90;;;;;;5050996;28;20601;-76
2023/12/26 09:23:38;;;;;;;11.53;2.60;;;8.90;99.90;;;;;;5030054;28;20488;-76
2023/12/26 09:26:05;;;;;;;5.73;2.37;;;8.90;99.90;;;;;;5031038;28;20549;-78
2023/12/26 09:28:32;;;;;;;7.87;2.70;;;8.90;99.90;;;;;;5055069;28;20501;-76
2023/12/26 09:31:00;;;;;;;8.33;4.20;;;8.90;99.90;;;;;;5054197;28;20476;-77
2023/12/26 09:33:26;;;;;;;3.17;2.80;;;8.90;99.90;;;;;;5034664;28;21400;-76
2023/12/26 09:35:54;;;;;;;13.03;2.20;;;8.90;99.90;;;;;;5044674;28;20490;-77
2023/12/26 09:38:21;;;;;;;4.87;2.77;;;8.90;99.90;;;;;;5042143;28;20988;-73
2023/12/26 09:40:48;;;;;;;13.93;3.30;;;8.90;99.90;;;;;;5045050;28;20511;-74
2023/12/26 09:43:16;;;;;;;5.57;3.03;;;8.80;99.90;;;;;;5049556;28;20508;-73
2023/12/26 09:45:42;;;;;;;4.23;2.17;;;9.00;99.90;;;;;;5026501;28;20541;-76
2023/12/26 09:48:10;;;;;;;10.20;2.30;;;9.00;99.90;;;;;;5033471;28;21004;-73
2023/12/26 09:50:37;;;;;;;12.03;3.10;;;8.90;99.90;;;;;;5049992;28;20563;-75
2023/12/26 09:53:08;;;;;;;2.30;1.93;;;8.90;99.90;;;;;;5031335;28;20571;-78
2023/12/26 09:55:35;;;;;;;3.13;2.43;;;9.00;99.90;;;;;;5033843;28;21071;-78
2023/12/26 09:58:03;;;;;;;3.70;2.40;;;8.90;99.90;;;;;;5019806;28;20559;-78
2023/12/26 10:00:30;;;;;;;6.70;2.90;;;8.90;99.90;;;;;;5050196;28;21064;-80
2023/12/26 10:02:57;;;;;;;9.53;3.37;;;9.00;99.90;;;;;;5056556;28;20678;-76
2023/12/26 10:05:24;;;;;;;4.50;2.20;;;8.90;99.90;;;;;;5033452;28;20499;-78
2023/12/26 10:07:51;;;;;;;3.13;2.40;;;8.90;99.90;;;;;;5044525;28;20553;-76
2023/12/26 10:10:21;;;;;;;13.17;3.50;;;8.90;99.90;;;;;;5038360;28;20549;-79
2023/12/26 10:12:48;;;;;;;20.13;4.13;;;9.00;99.90;;;;;;5052089;28;21071;-76
2023/12/26 10:15:15;;;;;;;13.80;2.10;;;9.00;99.90;;;;;;5042696;28;21008;-75
2023/12/26 10:17:43;;;;;;;7.13;2.80;;;9.00;99.90;;;;;;4992882;28;20913;-82
2023/12/26 10:20:12;;;;;;;6.80;3.23;;;9.00;99.90;;;;;;5042701;28;20895;-78
2023/12/26 10:22:42;;;;;;;11.10;3.50;;;9.00;99.90;;;;;;5042356;28;20977;-80
2023/12/26 10:25:09;;;;;;;10.60;3.90;;;9.00;99.90;;;;;;5036373;28;21094;-76
2023/12/26 10:27:38;;;;;;;10.73;3.73;;;9.10;99.90;;;;;;5032953;28;20490;-75
2023/12/26 10:30:05;;;;;;;24.70;4.73;;;9.10;99.90;;;;;;5060517;28;20992;-75
2023/12/26 10:32:33;;;;;;;10.30;3.43;;;9.10;99.90;;;;;;5023717;28;20476;-76
2023/12/26 10:35:13;;;;;;;3.33;1.80;;;9.10;99.90;;;;;;5069863;28;20943;-75
2023/12/26 10:37:40;;;;;;;22.43;4.50;;;9.10;99.90;;;;;;5055730;28;20678;-76
2023/12/26 10:40:08;;;;;;;7.07;4.13;;;9.10;99.90;;;;;;5040110;28;20499;-76
2023/12/26 10:42:39;;;;;;;11.43;2.83;;;9.00;99.90;;;;;;5044038;28;20507;-80
2023/12/26 10:45:09;;;;;;;3.40;3.03;;;9.00;99.90;;;;;;5039441;28;20544;-74
2023/12/26 10:47:36;;;;;;;3.23;2.80;;;9.10;99.90;;;;;;5036201;28;20551;-74
2023/12/26 10:50:06;;;;;;;9.03;2.83;;;9.20;99.90;;;;;;5044178;28;20482;-76
2023/12/26 10:52:32;;;;;;;2.73;2.47;;;9.10;99.90;;;;;;5064652;28;20779;-77
2023/12/26 10:55:01;;;;;;;7.33;4.40;;;9.10;99.90;;;;;;5050679;28;21154;-74
2023/12/26 10:57:30;;;;;;;3.30;2.93;;;9.20;99.90;;;;;;5059528;28;20560;-76
2023/12/26 10:59:58;;;;;;;2.70;1.83;;;9.30;99.90;;;;;;5040996;28;20467;-76
2023/12/26 11:02:25;;;;;;;6.80;3.67;;;9.20;99.90;;;;;;5054856;28;20555;-74
2023/12/26 11:04:51;;;;;;;3.47;3.10;;;9.20;99.90;;;;;;5061217;28;20483;-76
2023/12/26 11:07:19;;;;;;;5.50;3.20;;;9.20;99.90;;;;;;5036410;28;20969;-75
2023/12/26 11:09:44;;;;;;;15.03;4.40;;;9.30;99.90;;;;;;5068350;28;20740;-75
2023/12/26 11:12:10;;;;;;;10.93;2.97;;;9.30;99.90;;;;;;5031307;28;20533;-75
2023/12/26 11:14:38;;;;;;;8.10;4.33;;;;;;;;;;5056471;28;20243;-80
2023/12/26 11:17:08;;;;;;;35.33;4.83;;;9.20;99.90;;;;;;5044771;28;20514;-77
2023/12/26 11:19:34;;;;;;;8.93;2.73;;;9.40;99.90;;;;;;5041875;28;21440;-78
2023/12/26 11:22:02;;;;;;;4.50;2.73;;;9.40;99.90;;;;;;5034622;28;20544;-81
2023/12/26 11:24:28;;;;;;;10.60;3.57;;;9.40;99.90;;;;;;5046892;28;20519;-78
2023/12/26 11:26:54;;;;;;;15.63;3.23;;;9.40;99.90;;;;;;5055682;28;20467;-77
2023/12/26 11:29:21;;;;;;;5.13;2.20;;;9.40;99.90;;;;;;5049676;28;20514;-78
2023/12/26 11:31:47;;;;;;;2.13;1.93;;;9.50;99.90;;;;;;5021148;28;20507;-76
2023/12/26 11:34:15;;;;;;;4.57;3.13;;;9.50;99.90;;;;;;5039914;28;20979;-76
2023/12/26 11:36:44;;;;;;;2.13;1.90;;;9.50;99.90;;;;;;5030753;28;20275;-79
2023/12/26 11:39:12;;;;;;;7.20;2.80;;;9.50;99.90;;;;;;5040923;28;21122;-83
2023/12/26 11:41:37;;;;;;;5.00;2.87;;;9.50;99.90;;;;;;5049849;28;20468;-79
2023/12/26 11:44:04;;;;;;;4.33;3.57;;;9.50;99.90;;;;;;5039675;28;21036;-77
2023/12/26 11:46:30;;;;;;;10.50;2.73;;;9.60;99.90;;;;;;5023230;28;20266;-76
2023/12/26 11:48:56;;;;;;;12.43;3.07;;;9.50;99.90;;;;;;5038026;28;20503;-77
2023/12/26 11:51:24;;;;;;;38.37;5.00;;;9.60;99.90;;;;;;5038737;28;20229;-75
2023/12/26 11:53:50;;;;;;;6.23;3.20;;;9.60;99.90;;;;;;5031880;28;20324;-81
2023/12/26 11:56:16;;;;;;;6.13;1.63;;;9.60;99.90;;;;;;5044449;28;21273;-80
2023/12/26 11:58:42;;;;;;;14.57;2.83;;;9.60;99.90;;;;;;5059630;28;20245;-79
2023/12/26 12:01:08;;;;;;;6.60;2.50;;;9.60;99.90;;;;;;5039533;28;20563;-76
2023/12/26 12:03:37;;;;;;;3.70;2.27;;;9.70;99.90;;;;;;5021408;28;21294;-79
2023/12/26 12:06:14;;;;;;;8.60;2.07;;;9.70;99.90;;;;;;5037164;28;20236;-78
2023/12/26 12:09:02;;;;;;;4.10;1.40;;;9.70;99.90;;;;;;5024113;28;20575;-77
2023/12/26 12:11:29;;;;;;;6.80;2.77;;;9.70;99.90;;;;;;5046343;28;20475;-77
2023/12/26 12:13:55;;;;;;;3.50;1.87;;;;;;;;;;5051481;28;20499;-77
2023/12/26 12:16:22;;;;;;;1.70;1.03;;;9.70;99.90;;;;;;5031415;28;20482;-77
2023/12/26 12:18:59;;;;;;;21.07;3.23;;;9.80;99.90;;;;;;5044646;28;20490;-76
2023/12/26 12:21:35;;;;;;;3.40;1.93;;;9.80;99.90;;;;;;5040084;28;20555;-79
2023/12/26 12:24:04;;;;;;;3.73;2.33;;;9.90;99.90;;;;;;5012614;28;20906;-75
2023/12/26 12:26:58;;;;;;;9.33;2.77;;;;;;;;;;5050038;28;20888;-74
2023/12/26 12:29:25;;;;;;;6.83;2.33;;;9.90;99.90;;;;;;5052977;28;20479;-80
2023/12/26 12:32:17;;;;;;;5.27;1.90;;;9.80;99.90;;;;;;5059922;28;20574;-76
2023/12/26 12:35:10;;;;;;;32.03;4.13;;;9.90;99.90;;;;;;5052549;28;20986;-74
2023/12/26 12:37:36;;;;;;;5.00;1.80;;;9.90;99.90;;;;;;5064529;28;20581;-74
2023/12/26 12:40:06;;;;;;;2.70;1.93;;;9.90;99.90;;;;;;5061725;28;20842;-74
2023/12/26 12:42:34;;;;;;;5.63;2.53;;;9.80;99.90;;;;;;5059013;28;20602;-72
2023/12/26 12:45:03;;;;;;;2.13;1.30;;;9.80;99.90;;;;;;5049149;28;20565;-74
2023/12/26 12:47:30;;;;;;;8.53;1.87;;;9.90;99.90;;;;;;5062233;28;20503;-76
2023/12/26 12:50:00;;;;;;;5.70;2.10;;;10.00;99.90;;;;;;5036262;28;20479;-75
2023/12/26 12:52:26;;;;;;;4.83;1.60;;;10.00;99.90;;;;;;5051876;28;20551;-77
2023/12/26 12:54:52;;;;;;;3.43;1.47;;;10.10;99.90;;;;;;5050024;28;21302;-78